createdAt,value
2022-11-20T00:00:18.670Z,4.80
2022-11-20T00:02:45.340Z,4.80
2022-11-20T00:05:12.103Z,4.80
2022-11-20T00:07:38.830Z,4.80
2022-11-20T00:10:06.069Z,4.80
2022-11-20T00:12:32.782Z,4.80
2022-11-20T00:14:59.474Z,4.80
2022-11-20T00:17:26.203Z,4.80
2022-11-20T00:19:53.060Z,4.70
2022-11-20T00:22:19.729Z,4.70
2022-11-20T00:24:46.435Z,4.60
2022-11-20T00:27:13.137Z,4.60
2022-11-20T00:29:39.882Z,4.60
2022-11-20T00:32:06.537Z,4.50
2022-11-20T00:34:33.211Z,4.50
2022-11-20T00:36:59.918Z,4.50
2022-11-20T00:39:26.662Z,4.50
2022-11-20T00:41:53.324Z,4.50
2022-11-20T00:44:20.027Z,4.50
2022-11-20T00:46:46.716Z,4.50
2022-11-20T00:49:13.674Z,4.50
2022-11-20T00:51:40.324Z,4.40
2022-11-20T00:54:07.132Z,4.40
2022-11-20T00:56:33.805Z,4.50
2022-11-20T00:59:01.977Z,4.40
2022-11-20T01:01:30.390Z,4.40
2022-11-20T01:03:59.327Z,4.40
2022-11-20T01:06:28.550Z,4.40
2022-11-20T01:08:57.669Z,4.40
2022-11-20T01:11:29.883Z,4.30
2022-11-20T01:13:57.887Z,4.30
2022-11-20T01:16:33.841Z,4.30
2022-11-20T01:19:02.282Z,4.30
2022-11-20T01:21:31.296Z,4.30
2022-11-20T01:23:58.399Z,4.40
2022-11-20T01:26:27.485Z,4.40
2022-11-20T01:28:54.770Z,4.50
2022-11-20T01:31:26.233Z,4.50
2022-11-20T01:33:54.923Z,4.50
2022-11-20T01:36:23.444Z,4.50
2022-11-20T01:38:54.826Z,4.50
2022-11-20T01:41:40.796Z,4.50
2022-11-20T01:44:07.821Z,4.60
2022-11-20T01:46:37.600Z,4.60
2022-11-20T01:49:07.073Z,4.60
2022-11-20T01:51:39.905Z,4.50
2022-11-20T01:54:09.749Z,4.50
2022-11-20T01:56:39.816Z,4.50
2022-11-20T01:59:08.518Z,4.50
2022-11-20T02:01:35.292Z,4.40
2022-11-20T02:04:02.903Z,4.40
2022-11-20T02:06:54.799Z,4.40
2022-11-20T02:09:21.681Z,4.40
2022-11-20T02:11:48.472Z,4.40
2022-11-20T02:14:15.553Z,4.40
2022-11-20T02:16:46.564Z,4.40
2022-11-20T02:19:29.836Z,4.40
2022-11-20T02:22:02.749Z,4.50
2022-11-20T02:24:29.580Z,4.50
2022-11-20T02:27:06.153Z,4.50
2022-11-20T02:29:52.033Z,4.50
2022-11-20T02:32:27.664Z,4.60
2022-11-20T02:34:54.704Z,4.60
2022-11-20T02:37:22.288Z,4.70
2022-11-20T02:39:51.055Z,4.70
2022-11-20T02:42:18.046Z,4.80
2022-11-20T02:44:44.825Z,4.70
2022-11-20T02:47:11.539Z,4.80
2022-11-20T02:49:38.238Z,4.80
2022-11-20T02:52:05.098Z,4.80
2022-11-20T02:54:32.225Z,4.80
2022-11-20T02:56:59.154Z,4.80
2022-11-20T02:59:25.832Z,4.80
2022-11-20T03:01:52.523Z,4.70
2022-11-20T03:04:19.232Z,4.80
2022-11-20T03:06:45.947Z,4.80
2022-11-20T03:09:13.094Z,4.80
2022-11-20T03:11:39.832Z,4.80
2022-11-20T03:14:06.732Z,4.90
2022-11-20T03:16:33.851Z,4.90
2022-11-20T03:19:01.153Z,4.90
2022-11-20T03:21:28.099Z,4.90
2022-11-20T03:23:55.516Z,4.90
2022-11-20T03:26:24.342Z,5.00
2022-11-20T03:28:56.857Z,5.00
2022-11-20T03:31:26.020Z,5.00
2022-11-20T03:33:52.983Z,5.00
2022-11-20T03:36:20.596Z,5.00
2022-11-20T03:38:48.183Z,5.00
2022-11-20T03:41:17.453Z,5.00
2022-11-20T03:44:00.925Z,5.00
2022-11-20T03:46:28.339Z,5.00
2022-11-20T03:48:55.319Z,5.00
2022-11-20T03:51:29.985Z,5.00
2022-11-20T03:53:59.891Z,5.00
2022-11-20T03:56:28.918Z,5.10
2022-11-20T03:58:55.971Z,5.00
2022-11-20T04:01:25.090Z,5.00
2022-11-20T04:03:54.196Z,5.00
2022-11-20T04:06:34.108Z,5.00
2022-11-20T04:09:01.060Z,5.00
2022-11-20T04:11:32.700Z,5.00
2022-11-20T04:14:01.618Z,5.00
2022-11-20T04:16:31.362Z,5.00
2022-11-20T04:19:00.031Z,5.00
2022-11-20T04:21:27.528Z,5.00
2022-11-20T04:23:55.146Z,5.00
2022-11-20T04:26:23.361Z,5.00
2022-11-20T04:28:50.490Z,5.00
2022-11-20T04:31:20.165Z,5.10
2022-11-20T04:33:47.308Z,5.00
2022-11-20T04:36:19.047Z,5.10
2022-11-20T04:38:46.282Z,5.10
2022-11-20T04:41:17.760Z,5.00
2022-11-20T04:43:49.539Z,5.10
2022-11-20T04:46:17.201Z,5.10
2022-11-20T04:48:44.014Z,5.10
2022-11-20T04:51:10.810Z,5.00
2022-11-20T04:53:37.560Z,5.00
2022-11-20T04:56:07.336Z,5.00
2022-11-20T04:58:34.971Z,5.00
2022-11-20T05:01:10.245Z,5.00
2022-11-20T05:03:42.009Z,5.00
2022-11-20T05:06:10.505Z,5.00
2022-11-20T05:08:37.346Z,5.00
2022-11-20T05:11:06.426Z,5.00
2022-11-20T05:13:33.305Z,4.90
2022-11-20T05:16:08.431Z,5.00
2022-11-20T05:18:36.245Z,5.00
2022-11-20T05:21:03.323Z,4.90
2022-11-20T05:23:31.323Z,4.90
2022-11-20T05:25:59.538Z,4.90
2022-11-20T05:28:27.795Z,5.00
2022-11-20T05:30:54.538Z,5.00
2022-11-20T05:33:22.041Z,5.00
2022-11-20T05:35:49.534Z,5.00
2022-11-20T05:38:16.696Z,5.00
2022-11-20T05:40:43.471Z,5.00
2022-11-20T05:43:10.212Z,5.00
2022-11-20T05:45:36.919Z,5.00
2022-11-20T05:48:04.020Z,5.00
2022-11-20T05:50:31.134Z,5.00
2022-11-20T05:53:01.074Z,5.00
2022-11-20T05:55:28.489Z,5.00
2022-11-20T05:57:55.941Z,5.00
2022-11-20T06:00:23.383Z,5.00
2022-11-20T06:02:50.164Z,5.00
2022-11-20T06:05:17.107Z,5.00
2022-11-20T06:07:44.105Z,5.00
2022-11-20T06:10:11.658Z,5.00
2022-11-20T06:12:38.478Z,5.00
2022-11-20T06:15:06.515Z,5.00
2022-11-20T06:17:33.223Z,5.00
2022-11-20T06:19:59.931Z,5.00
2022-11-20T06:22:26.665Z,5.10
2022-11-20T06:24:53.396Z,5.10
2022-11-20T06:27:20.085Z,5.10
2022-11-20T06:29:46.915Z,5.10
2022-11-20T06:32:13.596Z,5.20
2022-11-20T06:34:40.330Z,5.20
2022-11-20T06:37:07.046Z,5.20
2022-11-20T06:39:33.823Z,5.20
2022-11-20T06:42:00.555Z,5.20
2022-11-20T06:44:27.297Z,5.20
2022-11-20T06:46:54.120Z,5.20
2022-11-20T06:49:21.302Z,5.30
2022-11-20T06:51:48.312Z,5.20
2022-11-20T06:54:15.070Z,5.20
2022-11-20T06:56:41.887Z,5.20
2022-11-20T06:59:08.769Z,5.20
2022-11-20T07:01:36.053Z,5.20
2022-11-20T07:04:04.118Z,5.20
2022-11-20T07:06:31.053Z,5.10
2022-11-20T07:08:58.025Z,5.10
2022-11-20T07:11:24.940Z,5.10
2022-11-20T07:13:51.744Z,5.10
2022-11-20T07:16:18.784Z,5.10
2022-11-20T07:18:50.232Z,5.10
2022-11-20T07:21:17.777Z,5.10
2022-11-20T07:23:44.515Z,5.10
2022-11-20T07:26:11.991Z,5.10
2022-11-20T07:28:39.361Z,5.10
2022-11-20T07:31:07.801Z,5.10
2022-11-20T07:33:34.742Z,5.10
2022-11-20T07:36:01.860Z,5.10
2022-11-20T07:38:28.593Z,5.10
2022-11-20T07:40:57.067Z,5.10
2022-11-20T07:43:24.201Z,5.10
2022-11-20T07:45:51.189Z,5.10
2022-11-20T07:48:17.899Z,5.10
2022-11-20T07:50:44.599Z,5.10
2022-11-20T07:53:11.326Z,5.20
2022-11-20T07:55:38.028Z,5.20
2022-11-20T07:58:04.875Z,5.20
2022-11-20T08:00:31.732Z,5.20
2022-11-20T08:02:58.517Z,5.20
2022-11-20T08:05:25.204Z,5.20
2022-11-20T08:07:52.715Z,5.20
2022-11-20T08:10:19.517Z,5.30
2022-11-20T08:13:06.202Z,5.30
2022-11-20T08:15:33.316Z,5.30
2022-11-20T08:18:29.982Z,5.30
2022-11-20T08:20:54.550Z,5.30
2022-11-20T08:23:21.215Z,5.40
2022-11-20T08:25:50.939Z,5.40
2022-11-20T08:28:21.416Z,5.40
2022-11-20T08:30:48.764Z,5.30
2022-11-20T08:33:15.461Z,5.30
2022-11-20T08:35:42.730Z,5.40
2022-11-20T08:38:09.795Z,5.30
2022-11-20T08:40:36.545Z,5.30
2022-11-20T08:43:03.289Z,5.30
2022-11-20T08:45:34.068Z,5.30
2022-11-20T08:48:02.611Z,5.30
2022-11-20T08:50:29.531Z,5.20
2022-11-20T08:52:56.298Z,5.20
2022-11-20T08:55:23.057Z,5.20
2022-11-20T08:57:51.213Z,5.20
2022-11-20T09:00:18.307Z,5.20
2022-11-20T09:02:45.037Z,5.20
2022-11-20T09:05:11.741Z,5.20
2022-11-20T09:07:38.603Z,5.20
2022-11-20T09:12:53.602Z,5.30
2022-11-20T09:15:20.667Z,5.20
2022-11-20T09:17:59.048Z,5.20
2022-11-20T09:20:26.642Z,5.20
2022-11-20T09:22:53.457Z,5.20
2022-11-20T09:25:20.128Z,5.20
2022-11-20T09:27:47.064Z,5.20
2022-11-20T09:30:15.519Z,5.20
2022-11-20T09:32:42.944Z,5.20
2022-11-20T09:35:10.417Z,5.20
2022-11-20T09:37:37.090Z,5.20
2022-11-20T09:40:04.267Z,5.20
2022-11-20T09:42:42.759Z,5.20
2022-11-20T09:45:45.554Z,5.10
2022-11-20T09:48:24.309Z,5.10
2022-11-20T09:51:09.683Z,5.00
2022-11-20T09:53:51.452Z,4.90
2022-11-20T09:56:22.604Z,4.90
2022-11-20T09:58:52.348Z,4.90
2022-11-20T10:01:21.574Z,4.90
2022-11-20T10:03:59.305Z,4.80
2022-11-20T10:06:30.644Z,4.80
2022-11-20T10:09:13.700Z,4.80
2022-11-20T10:12:06.621Z,4.90
2022-11-20T10:14:36.357Z,4.90
2022-11-20T10:17:20.865Z,4.90
2022-11-20T10:20:10.947Z,4.90
2022-11-20T10:23:25.483Z,5.00
2022-11-20T10:26:17.672Z,5.00
2022-11-20T10:28:54.006Z,5.00
2022-11-20T10:31:39.268Z,5.00
2022-11-20T10:34:29.453Z,5.00
2022-11-20T10:36:57.236Z,5.00
2022-11-20T10:39:38.969Z,5.00
2022-11-20T10:42:10.428Z,5.00
2022-11-20T10:44:57.323Z,5.00
2022-11-20T10:47:25.834Z,5.00
2022-11-20T10:49:55.002Z,5.00
2022-11-20T10:52:29.631Z,5.10
2022-11-20T10:55:09.285Z,5.30
2022-11-20T10:57:57.448Z,5.50
2022-11-20T11:00:24.491Z,5.60
2022-11-20T11:02:53.009Z,5.60
2022-11-20T11:05:38.641Z,5.60
2022-11-20T11:08:09.934Z,5.50
2022-11-20T11:10:55.989Z,5.50
2022-11-20T11:13:28.114Z,5.50
2022-11-20T11:15:55.721Z,5.50
2022-11-20T11:18:31.558Z,5.50
2022-11-20T11:21:00.416Z,5.60
2022-11-20T11:23:43.903Z,5.60
2022-11-20T11:26:22.611Z,5.60
2022-11-20T11:29:04.315Z,5.60
2022-11-20T11:31:33.246Z,5.60
2022-11-20T11:34:15.111Z,5.60
2022-11-20T11:36:43.091Z,5.70
2022-11-20T11:39:15.949Z,5.70
2022-11-20T11:41:42.881Z,5.70
2022-11-20T11:44:40.062Z,5.60
2022-11-20T11:47:12.710Z,5.60
2022-11-20T11:49:39.377Z,5.50
2022-11-20T11:52:19.642Z,5.40
2022-11-20T11:55:00.811Z,5.40
2022-11-20T11:57:30.011Z,5.40
2022-11-20T12:00:16.070Z,5.30
2022-11-20T12:02:45.839Z,5.30
2022-11-20T12:05:32.077Z,5.40
2022-11-20T12:08:20.918Z,5.40
2022-11-20T12:10:56.731Z,5.50
2022-11-20T12:13:35.513Z,5.60
2022-11-20T12:16:03.616Z,5.60
2022-11-20T12:18:30.757Z,5.70
2022-11-20T12:21:31.849Z,5.70
2022-11-20T12:24:28.355Z,5.80
2022-11-20T12:27:23.102Z,5.80
2022-11-20T12:29:52.998Z,5.80
2022-11-20T12:32:34.848Z,5.90
2022-11-20T12:35:19.609Z,5.90
2022-11-20T12:38:01.664Z,5.90
2022-11-20T12:41:11.220Z,5.90
2022-11-20T12:44:24.449Z,5.80
2022-11-20T12:47:11.864Z,5.90
2022-11-20T12:50:15.350Z,6.00
2022-11-20T12:52:58.431Z,6.10
2022-11-20T12:55:25.227Z,6.10
2022-11-20T12:57:55.614Z,6.10
2022-11-20T13:00:24.189Z,6.10
2022-11-20T13:03:00.226Z,6.60
2022-11-20T13:05:52.452Z,6.10
2022-11-20T13:08:26.937Z,6.10
2022-11-20T13:11:04.730Z,6.10
2022-11-20T13:13:46.407Z,6.00
2022-11-20T13:16:36.290Z,6.00
2022-11-20T13:19:09.209Z,6.00
2022-11-20T13:21:45.788Z,5.90
2022-11-20T13:24:27.933Z,5.80
2022-11-20T13:27:14.183Z,5.70
2022-11-20T13:29:46.753Z,5.70
2022-11-20T13:32:21.430Z,5.60
2022-11-20T13:35:02.925Z,5.50
2022-11-20T13:37:37.675Z,5.50
2022-11-20T13:40:20.336Z,5.40
2022-11-20T13:42:58.311Z,5.30
2022-11-20T13:45:28.650Z,5.20
2022-11-20T13:47:56.537Z,5.20
2022-11-20T13:50:42.670Z,5.20
2022-11-20T13:53:29.148Z,5.20
2022-11-20T13:56:01.979Z,5.30
2022-11-20T13:58:51.882Z,5.40
2022-11-20T14:01:22.374Z,5.50
2022-11-20T14:04:06.467Z,5.50
2022-11-20T14:06:42.887Z,5.50
2022-11-20T14:09:30.055Z,5.40
2022-11-20T14:11:57.870Z,5.40
2022-11-20T14:14:30.350Z,5.40
2022-11-20T14:17:08.374Z,5.30
2022-11-20T14:19:36.494Z,5.30
2022-11-20T14:22:18.049Z,5.30
2022-11-20T14:24:44.906Z,5.40
2022-11-20T14:27:20.382Z,5.40
2022-11-20T14:29:49.351Z,5.40
2022-11-20T14:32:18.482Z,5.40
2022-11-20T14:34:47.413Z,5.40
2022-11-20T14:37:23.033Z,5.40
2022-11-20T14:39:55.295Z,5.40
2022-11-20T14:42:24.390Z,5.40
2022-11-20T14:44:52.534Z,5.40
2022-11-20T14:47:30.973Z,5.40
2022-11-20T14:49:58.845Z,5.40
2022-11-20T14:52:27.386Z,5.30
2022-11-20T14:54:56.487Z,5.30
2022-11-20T14:57:26.742Z,5.20
2022-11-20T15:00:09.235Z,5.20
2022-11-20T15:02:39.558Z,5.20
2022-11-20T15:05:06.736Z,5.10
2022-11-20T15:07:36.088Z,5.10
2022-11-20T15:10:08.498Z,5.00
2022-11-20T15:12:38.634Z,5.00
2022-11-20T15:15:06.637Z,4.90
2022-11-20T15:17:35.497Z,4.90
2022-11-20T15:20:03.512Z,4.90
2022-11-20T15:22:30.206Z,4.90
2022-11-20T15:24:57.022Z,4.90
2022-11-20T15:27:24.199Z,4.90
2022-11-20T15:29:50.982Z,4.90
2022-11-20T15:32:17.665Z,4.90
2022-11-20T15:34:44.756Z,4.80
2022-11-20T15:37:11.444Z,4.80
2022-11-20T15:39:38.136Z,4.80
2022-11-20T15:42:04.998Z,4.80
2022-11-20T15:44:32.062Z,4.80
2022-11-20T15:46:58.734Z,4.90
2022-11-20T15:49:26.452Z,4.90
2022-11-20T15:51:54.139Z,4.90
2022-11-20T15:54:23.087Z,4.90
2022-11-20T15:56:53.088Z,4.90
2022-11-20T15:59:20.125Z,4.90
2022-11-20T16:01:47.197Z,4.90
2022-11-20T16:04:16.307Z,4.90
2022-11-20T16:06:43.332Z,4.90
2022-11-20T16:09:10.564Z,4.90
2022-11-20T16:11:50.287Z,4.90
2022-11-20T16:14:50.593Z,4.90
2022-11-20T16:17:37.152Z,4.90
2022-11-20T16:20:04.057Z,4.90
2022-11-20T16:22:30.716Z,4.90
2022-11-20T16:24:57.412Z,4.90
2022-11-20T16:27:24.087Z,4.90
2022-11-20T16:29:50.808Z,4.90
2022-11-20T16:32:17.524Z,5.00
2022-11-20T16:34:44.225Z,4.90
2022-11-20T16:37:10.983Z,4.90
2022-11-20T16:39:37.687Z,4.90
2022-11-20T16:42:04.855Z,5.00
2022-11-20T16:44:31.525Z,5.00
2022-11-20T16:46:58.212Z,5.00
2022-11-20T16:49:24.875Z,5.00
2022-11-20T16:51:51.848Z,5.00
2022-11-20T16:54:21.134Z,5.00
2022-11-20T16:56:48.284Z,5.10
2022-11-20T16:59:14.990Z,5.00
2022-11-20T17:01:43.117Z,5.00
2022-11-20T17:04:10.222Z,5.00
2022-11-20T17:06:40.271Z,5.00
2022-11-20T17:09:10.892Z,5.00
2022-11-20T17:11:38.133Z,5.00
2022-11-20T17:14:07.505Z,5.00
2022-11-20T17:16:35.680Z,5.00
2022-11-20T17:19:03.886Z,4.90
2022-11-20T17:21:31.779Z,4.90
2022-11-20T17:24:02.187Z,4.90
2022-11-20T17:26:28.949Z,4.90
2022-11-20T17:28:58.123Z,4.90
2022-11-20T17:31:25.099Z,4.90
2022-11-20T17:33:51.829Z,4.90
2022-11-20T17:36:19.550Z,4.90
2022-11-20T17:38:47.084Z,4.90
2022-11-20T17:41:15.891Z,5.00
2022-11-20T17:43:43.411Z,5.00
2022-11-20T17:46:21.019Z,5.00
2022-11-20T17:48:48.478Z,5.00
2022-11-20T17:51:20.191Z,5.00
2022-11-20T17:53:50.246Z,5.00
2022-11-20T17:56:35.973Z,5.00
2022-11-20T17:59:07.311Z,5.00
2022-11-20T18:01:34.163Z,5.00
2022-11-20T18:04:01.233Z,5.00
2022-11-20T18:06:28.909Z,5.00
2022-11-20T18:08:57.605Z,5.00
2022-11-20T18:11:27.059Z,5.00
2022-11-20T18:14:24.763Z,5.10
2022-11-20T18:16:54.496Z,5.00
2022-11-20T18:19:32.463Z,5.00
2022-11-20T18:22:01.626Z,5.00
2022-11-20T18:24:28.784Z,4.90
2022-11-20T18:26:55.814Z,4.90
2022-11-20T18:29:22.906Z,4.90
2022-11-20T18:31:50.166Z,4.90
2022-11-20T18:34:16.878Z,4.80
2022-11-20T18:36:45.106Z,4.80
2022-11-20T18:39:12.821Z,4.70
2022-11-20T18:41:59.048Z,4.70
2022-11-20T18:44:47.679Z,4.60
2022-11-20T18:47:16.890Z,4.60
2022-11-20T18:49:51.047Z,4.50
2022-11-20T18:52:25.286Z,4.50
2022-11-20T18:54:52.317Z,4.50
2022-11-20T18:57:20.668Z,4.40
2022-11-20T18:59:47.554Z,4.40
2022-11-20T19:02:20.149Z,4.30
2022-11-20T19:04:47.215Z,4.30
2022-11-20T19:07:14.874Z,4.20
2022-11-20T19:09:43.235Z,4.30
2022-11-20T19:12:11.281Z,4.20
2022-11-20T19:14:38.130Z,4.30
2022-11-20T19:17:06.749Z,4.20
2022-11-20T19:19:37.151Z,4.20
2022-11-20T19:22:04.392Z,4.20
2022-11-20T19:24:31.116Z,4.20
2022-11-20T19:26:58.346Z,4.20
2022-11-20T19:29:25.975Z,4.10
2022-11-20T19:31:53.698Z,4.20
2022-11-20T19:34:20.523Z,4.10
2022-11-20T19:36:47.718Z,4.20
2022-11-20T19:39:14.453Z,4.20
2022-11-20T19:41:41.613Z,4.20
2022-11-20T19:44:17.317Z,4.20
2022-11-20T19:46:44.419Z,4.20
2022-11-20T19:49:13.085Z,4.20
2022-11-20T19:51:46.079Z,4.20
2022-11-20T19:54:13.063Z,4.20
2022-11-20T19:56:39.869Z,4.20
2022-11-20T19:59:06.541Z,4.20
2022-11-20T20:01:33.497Z,4.20
2022-11-20T20:04:05.383Z,4.20
2022-11-20T20:06:34.160Z,4.20
2022-11-20T20:09:04.119Z,4.20
2022-11-20T20:11:32.867Z,4.10
2022-11-20T20:14:08.443Z,4.20
2022-11-20T20:16:35.506Z,4.10
2022-11-20T20:19:03.755Z,4.20
2022-11-20T20:21:31.978Z,4.10
2022-11-20T20:23:59.210Z,4.20
2022-11-20T20:26:28.451Z,4.20
2022-11-20T20:28:55.467Z,4.20
2022-11-20T20:31:25.794Z,4.20
2022-11-20T20:33:52.529Z,4.20
2022-11-20T20:36:20.308Z,4.20
2022-11-20T20:38:48.164Z,4.20
2022-11-20T20:41:15.162Z,4.20
2022-11-20T20:44:01.909Z,4.20
2022-11-20T20:46:28.665Z,4.20
2022-11-20T20:48:55.463Z,4.20
2022-11-20T20:51:22.590Z,4.20
2022-11-20T20:53:49.883Z,4.30
2022-11-20T20:56:17.708Z,4.30
2022-11-20T20:58:44.585Z,4.30
2022-11-20T21:01:13.744Z,4.30
2022-11-20T21:03:40.746Z,4.40
2022-11-20T21:06:09.693Z,4.40
2022-11-20T21:08:40.084Z,4.40
2022-11-20T21:11:16.216Z,4.40
2022-11-20T21:13:44.003Z,4.40
2022-11-20T21:16:11.884Z,4.40
2022-11-20T21:18:38.759Z,4.40
2022-11-20T21:21:30.268Z,4.40
2022-11-20T21:23:57.227Z,4.30
2022-11-20T21:26:24.204Z,4.30
2022-11-20T21:28:51.005Z,4.30
2022-11-20T21:31:23.442Z,4.30
2022-11-20T21:33:51.533Z,4.30
2022-11-20T21:36:20.111Z,4.30
2022-11-20T21:38:47.423Z,4.40
2022-11-20T21:41:15.478Z,4.40
2022-11-20T21:43:45.687Z,4.30
2022-11-20T21:46:15.696Z,4.30
2022-11-20T21:48:44.075Z,4.30
2022-11-20T21:51:22.773Z,4.20
2022-11-20T21:53:50.794Z,4.20
2022-11-20T21:56:20.626Z,4.20
2022-11-20T21:58:48.995Z,4.20
2022-11-20T22:01:20.182Z,4.20
2022-11-20T22:03:54.540Z,4.20
2022-11-20T22:06:21.775Z,4.20
2022-11-20T22:08:48.971Z,4.20
2022-11-20T22:11:17.580Z,4.10
2022-11-20T22:14:03.325Z,4.10
2022-11-20T22:16:30.291Z,4.10
2022-11-20T22:18:58.109Z,4.10
2022-11-20T22:21:26.964Z,4.00
2022-11-20T22:23:54.178Z,4.00
2022-11-20T22:26:25.703Z,4.00
2022-11-20T22:28:54.272Z,3.90
2022-11-20T22:31:22.417Z,3.90
2022-11-20T22:33:49.219Z,3.90
2022-11-20T22:36:24.299Z,4.00
2022-11-20T22:38:51.474Z,4.00
2022-11-20T22:41:20.065Z,4.00
2022-11-20T22:43:46.815Z,4.00
2022-11-20T22:46:15.913Z,4.00
2022-11-20T22:48:53.905Z,4.00
2022-11-20T22:51:22.756Z,4.10
2022-11-20T22:53:49.972Z,4.20
2022-11-20T22:56:17.335Z,4.20
2022-11-20T22:58:49.519Z,4.20
2022-11-20T23:01:17.492Z,4.20
2022-11-20T23:03:46.412Z,4.30
2022-11-20T23:06:14.102Z,4.30
2022-11-20T23:08:41.698Z,4.40
2022-11-20T23:11:38.996Z,4.40
2022-11-20T23:14:15.956Z,4.40
2022-11-20T23:16:43.011Z,4.40
2022-11-20T23:19:11.869Z,4.50
2022-11-20T23:21:40.406Z,4.60
2022-11-20T23:24:08.357Z,4.50
2022-11-20T23:26:38.560Z,4.50
2022-11-20T23:29:05.807Z,4.50
2022-11-20T23:31:34.049Z,4.50
2022-11-20T23:34:01.407Z,4.50
2022-11-20T23:36:28.266Z,4.50
2022-11-20T23:38:54.964Z,4.50
2022-11-20T23:41:21.704Z,4.40
2022-11-20T23:43:48.674Z,4.40
2022-11-20T23:46:16.977Z,4.20
2022-11-20T23:48:45.078Z,4.10
2022-11-20T23:51:12.516Z,4.00
2022-11-20T23:53:39.261Z,4.00
2022-11-20T23:56:06.323Z,3.90
2022-11-20T23:58:35.824Z,3.90
